createdAt,value
2018-07-12T00:01:49.690Z,2.37
2018-07-12T00:04:17.715Z,2.27
2018-07-12T00:06:45.742Z,2.23
2018-07-12T00:09:13.846Z,2.50
2018-07-12T00:11:41.916Z,2.20
2018-07-12T00:14:09.983Z,2.03
2018-07-12T00:16:38.005Z,2.17
2018-07-12T00:19:06.069Z,1.70
2018-07-12T00:21:34.391Z,2.10
2018-07-12T00:24:02.433Z,2.13
2018-07-12T00:26:30.475Z,2.20
2018-07-12T00:28:58.522Z,2.50
2018-07-12T00:31:26.560Z,2.27
2018-07-12T00:33:54.594Z,2.10
2018-07-12T00:36:22.642Z,2.10
2018-07-12T00:38:50.660Z,2.37
2018-07-12T00:41:18.683Z,1.97
2018-07-12T00:43:46.726Z,2.10
2018-07-12T00:46:14.823Z,2.70
2018-07-12T00:48:42.831Z,1.90
2018-07-12T00:51:10.873Z,1.80
2018-07-12T00:53:38.890Z,2.40
2018-07-12T00:56:06.916Z,2.00
2018-07-12T00:58:34.963Z,1.97
2018-07-12T01:01:02.985Z,2.20
2018-07-12T01:03:31.024Z,1.67
2018-07-12T01:05:59.070Z,2.00
2018-07-12T01:08:27.068Z,1.80
2018-07-12T01:10:55.123Z,2.10
2018-07-12T01:13:23.289Z,2.50
2018-07-12T01:15:51.330Z,2.20
2018-07-12T01:18:19.372Z,2.33
2018-07-12T01:20:47.423Z,2.40
2018-07-12T01:23:15.499Z,2.13
2018-07-12T01:25:43.531Z,2.47
2018-07-12T01:28:11.643Z,2.63
2018-07-12T01:30:39.675Z,2.50
2018-07-12T01:33:07.711Z,2.50
2018-07-12T01:35:36.763Z,2.20
2018-07-12T01:38:04.793Z,2.30
2018-07-12T01:40:32.840Z,2.30
2018-07-12T01:43:00.904Z,2.57
2018-07-12T01:45:31.027Z,2.60
2018-07-12T01:47:59.102Z,2.63
2018-07-12T01:50:27.126Z,2.87
2018-07-12T01:52:55.534Z,2.80
2018-07-12T01:55:23.673Z,3.37
2018-07-12T01:57:51.700Z,2.80
2018-07-12T02:00:19.737Z,2.70
2018-07-12T02:02:47.768Z,2.10
2018-07-12T02:05:15.815Z,3.10
2018-07-12T02:07:43.833Z,2.47
2018-07-12T02:10:38.395Z,2.90
2018-07-12T02:13:06.444Z,2.57
2018-07-12T02:15:35.273Z,2.50
2018-07-12T02:18:03.321Z,2.20
2018-07-12T02:20:31.303Z,2.03
2018-07-12T02:22:59.376Z,2.40
2018-07-12T02:25:27.440Z,2.70
2018-07-12T02:27:55.482Z,2.27
2018-07-12T02:30:23.517Z,2.80
2018-07-12T02:32:51.581Z,2.20
2018-07-12T02:35:19.630Z,2.47
2018-07-12T02:37:47.634Z,2.53
2018-07-12T02:40:15.680Z,2.13
2018-07-12T02:42:43.723Z,2.50
2018-07-12T02:45:11.812Z,1.97
2018-07-12T02:47:39.890Z,2.73
2018-07-12T02:50:07.916Z,2.93
2018-07-12T02:52:35.924Z,2.10
2018-07-12T02:55:03.935Z,2.30
2018-07-12T02:57:31.957Z,2.47
2018-07-12T02:59:59.981Z,2.53
2018-07-12T03:02:28.056Z,3.37
2018-07-12T03:04:56.126Z,3.00
2018-07-12T03:07:24.167Z,2.70
2018-07-12T03:09:52.269Z,3.30
2018-07-12T03:12:20.748Z,2.63
2018-07-12T03:14:48.769Z,2.90
2018-07-12T03:17:16.814Z,3.60
2018-07-12T03:19:44.850Z,2.77
2018-07-12T03:22:12.882Z,2.57
2018-07-12T03:24:40.956Z,3.00
2018-07-12T03:27:09.166Z,3.20
2018-07-12T03:29:37.187Z,3.07
2018-07-12T03:32:05.242Z,2.73
2018-07-12T03:34:33.272Z,2.17
2018-07-12T03:37:01.357Z,2.63
2018-07-12T03:39:29.394Z,2.90
2018-07-12T03:41:57.427Z,3.13
2018-07-12T03:44:25.587Z,3.30
2018-07-12T03:46:53.604Z,3.20
2018-07-12T03:49:22.176Z,2.67
2018-07-12T03:51:50.202Z,3.10
2018-07-12T03:54:18.292Z,2.67
2018-07-12T03:56:46.357Z,3.07
2018-07-12T03:59:14.375Z,2.77
2018-07-12T04:01:42.402Z,2.87
2018-07-12T04:04:10.410Z,2.50
2018-07-12T04:06:38.438Z,3.43
2018-07-12T04:09:06.862Z,3.43
2018-07-12T04:11:34.875Z,2.77
2018-07-12T04:14:02.912Z,3.00
2018-07-12T04:16:30.937Z,3.33
2018-07-12T04:18:59.015Z,2.50
2018-07-12T04:21:27.045Z,3.33
2018-07-12T04:23:55.063Z,3.10
2018-07-12T04:26:23.197Z,2.97
2018-07-12T04:28:51.492Z,2.97
2018-07-12T04:31:19.563Z,2.73
2018-07-12T04:33:47.678Z,3.27
2018-07-12T04:36:15.824Z,4.07
2018-07-12T04:38:43.885Z,2.83
2018-07-12T04:41:11.928Z,2.80
2018-07-12T04:43:39.994Z,3.20
2018-07-12T04:46:08.037Z,4.07
2018-07-12T04:48:36.057Z,2.80
2018-07-12T04:51:04.140Z,2.80
2018-07-12T04:53:32.119Z,2.93
2018-07-12T04:56:00.290Z,3.33
2018-07-12T04:58:28.343Z,3.03
2018-07-12T05:00:56.381Z,2.90
2018-07-12T05:03:24.411Z,2.87
2018-07-12T05:05:52.522Z,2.80
2018-07-12T05:08:20.668Z,3.43
2018-07-12T05:10:48.771Z,3.03
2018-07-12T05:13:17.394Z,2.70
2018-07-12T05:15:45.441Z,2.80
2018-07-12T05:18:13.453Z,3.23
2018-07-12T05:20:41.523Z,3.00
2018-07-12T05:23:10.361Z,2.70
2018-07-12T05:25:38.418Z,3.97
2018-07-12T05:28:06.444Z,3.93
2018-07-12T05:30:35.703Z,2.73
2018-07-12T05:33:03.949Z,3.05
2018-07-12T05:35:33.024Z,2.87
2018-07-12T05:38:01.576Z,2.77
2018-07-12T05:40:30.344Z,3.50
2018-07-12T05:42:59.638Z,3.97
2018-07-12T05:45:28.161Z,2.50
2018-07-12T05:47:57.030Z,2.70
2018-07-12T05:50:25.593Z,3.17
2018-07-12T05:52:54.197Z,3.23
2018-07-12T05:55:22.760Z,2.87
2018-07-12T05:57:51.385Z,2.60
2018-07-12T06:00:19.870Z,2.87
2018-07-12T06:02:51.992Z,3.43
2018-07-12T06:05:22.978Z,2.90
2018-07-12T06:07:54.938Z,5.27
2018-07-12T06:10:23.828Z,4.43
2018-07-12T06:12:52.296Z,3.43
2018-07-12T06:15:20.793Z,3.77
2018-07-12T06:17:49.337Z,3.60
2018-07-12T06:20:17.890Z,3.67
2018-07-12T06:22:46.468Z,3.50
2018-07-12T06:25:15.061Z,3.83
2018-07-12T06:27:43.687Z,3.40
2018-07-12T06:30:12.293Z,3.67
2018-07-12T06:32:40.825Z,4.23
2018-07-12T06:35:09.324Z,3.60
2018-07-12T06:37:37.896Z,3.40
2018-07-12T06:40:06.390Z,2.83
2018-07-12T06:42:35.002Z,3.23
2018-07-12T06:45:04.820Z,3.83
2018-07-12T06:47:33.362Z,3.23
2018-07-12T06:50:01.933Z,3.00
2018-07-12T06:52:30.449Z,2.90
2018-07-12T06:54:59.063Z,2.87
2018-07-12T06:57:27.551Z,3.40
2018-07-12T06:59:56.068Z,2.73
2018-07-12T07:02:24.616Z,3.27
2018-07-12T07:04:53.251Z,3.50
2018-07-12T07:07:22.035Z,3.07
2018-07-12T07:09:50.561Z,3.53
2018-07-12T07:12:19.098Z,3.50
2018-07-12T07:14:47.647Z,3.00
2018-07-12T07:17:16.174Z,3.07
2018-07-12T07:19:44.682Z,3.27
2018-07-12T07:22:13.245Z,4.03
2018-07-12T07:24:41.784Z,3.30
2018-07-12T07:27:10.351Z,3.00
2018-07-12T07:29:38.852Z,3.17
2018-07-12T07:32:07.392Z,3.27
2018-07-12T07:34:35.918Z,3.37
2018-07-12T07:37:04.478Z,3.20
2018-07-12T07:39:33.028Z,2.87
2018-07-12T07:42:01.552Z,3.40
2018-07-12T07:44:30.123Z,3.27
2018-07-12T07:46:58.684Z,3.17
2018-07-12T07:49:27.241Z,2.97
2018-07-12T07:51:56.027Z,2.90
2018-07-12T07:54:24.594Z,3.07
2018-07-12T07:56:53.187Z,5.73
2018-07-12T07:59:21.706Z,3.97
2018-07-12T08:01:50.239Z,3.93
2018-07-12T08:04:18.792Z,3.90
2018-07-12T08:06:47.336Z,3.60
2018-07-12T08:09:15.843Z,2.87
2018-07-12T08:11:44.331Z,2.97
2018-07-12T08:14:12.907Z,3.10
2018-07-12T08:16:41.436Z,3.17
2018-07-12T08:19:09.946Z,3.10
2018-07-12T08:21:38.471Z,3.70
2018-07-12T08:24:07.015Z,2.73
2018-07-12T08:26:35.546Z,3.53
2018-07-12T08:29:04.456Z,2.87
2018-07-12T08:31:32.965Z,2.80
2018-07-12T08:34:01.496Z,2.57
2018-07-12T08:36:30.062Z,2.80
2018-07-12T08:38:58.623Z,2.80
2018-07-12T08:41:27.252Z,2.83
2018-07-12T08:43:55.787Z,2.63
2018-07-12T08:46:24.320Z,2.93
2018-07-12T08:48:52.814Z,2.70
2018-07-12T08:51:21.382Z,3.37
2018-07-12T08:53:49.890Z,3.07
2018-07-12T08:56:18.428Z,2.83
2018-07-12T08:58:46.998Z,2.83
2018-07-12T09:01:16.280Z,2.83
2018-07-12T09:03:44.852Z,2.23
2018-07-12T09:06:13.341Z,2.93
2018-07-12T09:08:41.877Z,3.00
2018-07-12T09:11:10.506Z,2.97
2018-07-12T09:13:38.974Z,2.97
2018-07-12T09:16:07.669Z,3.03
2018-07-12T09:18:36.194Z,2.60
2018-07-12T09:21:04.718Z,2.90
2018-07-12T09:23:33.425Z,3.00
2018-07-12T09:26:01.957Z,2.57
2018-07-12T09:28:30.455Z,3.30
2018-07-12T09:30:59.025Z,2.90
2018-07-12T09:33:27.567Z,2.97
2018-07-12T09:35:56.400Z,2.57
2018-07-12T09:38:30.976Z,2.30
2018-07-12T09:41:00.238Z,2.90
2018-07-12T09:43:28.845Z,2.57
2018-07-12T09:45:57.484Z,2.40
2018-07-12T09:48:26.074Z,2.57
2018-07-12T09:50:54.577Z,2.83
2018-07-12T09:53:23.172Z,2.47
2018-07-12T09:55:51.784Z,3.37
2018-07-12T09:58:24.186Z,2.10
2018-07-12T10:00:58.178Z,2.47
2018-07-12T10:03:59.023Z,2.87
2018-07-12T10:06:31.538Z,2.70
2018-07-12T10:09:04.437Z,2.60
2018-07-12T10:12:36.086Z,2.73
2018-07-12T10:15:10.675Z,2.40
2018-07-12T10:17:43.293Z,2.40
2018-07-12T10:20:11.810Z,2.43
2018-07-12T10:22:40.480Z,2.20
2018-07-12T10:25:09.153Z,2.30
2018-07-12T10:27:37.665Z,2.27
2018-07-12T10:30:07.381Z,2.37
2018-07-12T10:32:36.096Z,2.10
2018-07-12T10:35:05.192Z,2.07
2018-07-12T10:37:35.032Z,2.27
2018-07-12T10:40:04.552Z,1.93
2018-07-12T10:42:33.088Z,2.10
2018-07-12T10:45:01.593Z,2.20
2018-07-12T10:47:30.101Z,2.27
2018-07-12T10:49:58.657Z,2.10
2018-07-12T10:52:27.236Z,2.70
2018-07-12T10:54:55.745Z,2.23
2018-07-12T10:57:24.239Z,2.03
2018-07-12T10:59:52.748Z,2.00
2018-07-12T11:02:21.235Z,2.53
2018-07-12T11:04:49.776Z,2.40
2018-07-12T11:07:18.436Z,2.57
2018-07-12T11:09:47.017Z,2.07
2018-07-12T11:12:15.654Z,1.70
2018-07-12T11:14:44.206Z,2.30
2018-07-12T11:17:12.739Z,2.07
2018-07-12T11:19:41.284Z,1.90
2018-07-12T11:22:09.863Z,2.10
2018-07-12T11:24:38.495Z,2.00
2018-07-12T11:27:07.003Z,2.13
2018-07-12T11:29:41.140Z,2.33
2018-07-12T11:32:09.797Z,2.10
2018-07-12T11:34:38.328Z,2.10
2018-07-12T11:37:06.949Z,2.00
2018-07-12T11:39:35.457Z,2.50
2018-07-12T11:42:04.115Z,2.20
2018-07-12T11:44:32.708Z,2.23
2018-07-12T11:47:01.264Z,2.20
2018-07-12T11:49:29.759Z,2.10
2018-07-12T11:51:58.280Z,2.37
2018-07-12T11:54:26.823Z,2.13
2018-07-12T11:56:55.411Z,2.53
2018-07-12T11:59:24.688Z,2.27
2018-07-12T12:01:53.349Z,2.50
2018-07-12T12:04:21.798Z,2.73
2018-07-12T12:06:50.593Z,2.37
2018-07-12T12:09:19.080Z,2.53
2018-07-12T12:11:47.587Z,2.47
2018-07-12T12:14:16.066Z,2.60
2018-07-12T12:16:44.640Z,2.57
2018-07-12T12:19:13.163Z,2.83
2018-07-12T12:21:41.735Z,2.83
2018-07-12T12:24:10.313Z,2.20
2018-07-12T12:26:38.928Z,2.70
2018-07-12T12:29:07.536Z,2.77
2018-07-12T12:31:36.135Z,2.93
2018-07-12T12:34:05.655Z,2.50
2018-07-12T12:36:34.176Z,2.40
2018-07-12T12:39:03.543Z,2.43
2018-07-12T12:41:32.100Z,2.50
2018-07-12T12:44:00.633Z,2.40
2018-07-12T12:46:30.334Z,2.80
2018-07-12T12:48:59.367Z,2.30
2018-07-12T12:51:27.894Z,2.20
2018-07-12T12:53:56.461Z,2.07
2018-07-12T12:56:25.016Z,2.53
2018-07-12T12:58:53.569Z,2.23
2018-07-12T13:01:22.140Z,2.20
2018-07-12T13:03:51.012Z,2.30
2018-07-12T13:06:20.019Z,2.37
2018-07-12T13:08:49.975Z,2.37
2018-07-12T13:11:19.169Z,2.20
2018-07-12T13:13:49.027Z,2.40
2018-07-12T13:16:18.576Z,2.03
2018-07-12T13:18:47.510Z,2.03
2018-07-12T13:21:16.035Z,2.00
2018-07-12T13:23:44.634Z,2.27
2018-07-12T13:26:13.289Z,2.10
2018-07-12T13:28:41.852Z,2.77
2018-07-12T13:31:11.305Z,2.10
2018-07-12T13:33:39.892Z,2.73
2018-07-12T13:36:08.446Z,2.33
2018-07-12T13:38:37.232Z,1.80
2018-07-12T13:41:06.160Z,1.93
2018-07-12T13:43:34.944Z,2.00
2018-07-12T13:46:04.253Z,2.12
2018-07-12T13:48:32.768Z,2.20
2018-07-12T13:51:01.490Z,1.93
2018-07-12T13:53:29.989Z,1.80
2018-07-12T13:55:58.644Z,1.67
2018-07-12T13:58:27.210Z,1.83
2018-07-12T14:00:56.710Z,1.70
2018-07-12T14:03:25.243Z,1.60
2018-07-12T14:05:53.816Z,1.47
2018-07-12T14:08:23.295Z,1.53
2018-07-12T14:10:51.790Z,1.87
2018-07-12T14:13:20.359Z,1.67
2018-07-12T14:15:48.949Z,1.60
2018-07-12T14:18:17.466Z,1.70
2018-07-12T14:20:46.060Z,1.60
2018-07-12T14:23:14.572Z,1.70
2018-07-12T14:25:43.152Z,1.40
2018-07-12T14:28:11.678Z,1.50
2018-07-12T14:30:40.220Z,1.90
2018-07-12T14:33:09.076Z,1.60
2018-07-12T14:35:37.613Z,2.00
2018-07-12T14:38:06.188Z,1.83
2018-07-12T14:40:34.729Z,1.70
2018-07-12T14:43:04.021Z,1.60
2018-07-12T14:45:32.531Z,1.93
2018-07-12T14:48:01.089Z,1.53
2018-07-12T14:50:29.582Z,2.20
2018-07-12T14:52:58.125Z,1.77
2018-07-12T14:55:26.700Z,1.73
2018-07-12T14:57:55.256Z,1.80
2018-07-12T15:00:23.921Z,1.40
2018-07-12T15:02:52.489Z,1.67
2018-07-12T15:05:21.109Z,1.47
2018-07-12T15:07:49.621Z,2.00
2018-07-12T15:10:18.172Z,1.43
2018-07-12T15:12:46.740Z,1.80
2018-07-12T15:15:15.330Z,1.57
2018-07-12T15:17:44.152Z,1.40
2018-07-12T15:20:12.728Z,1.77
2018-07-12T15:22:41.585Z,2.20
2018-07-12T15:25:10.108Z,2.33
2018-07-12T15:27:39.334Z,1.80
2018-07-12T15:30:07.867Z,1.93
2018-07-12T15:32:36.383Z,1.70
2018-07-12T15:35:05.007Z,1.80
2018-07-12T15:37:33.724Z,1.67
2018-07-12T15:40:02.262Z,1.73
2018-07-12T15:42:30.771Z,1.70
2018-07-12T15:44:59.424Z,1.80
2018-07-12T15:47:28.322Z,1.70
2018-07-12T15:49:56.977Z,1.33
2018-07-12T15:52:25.553Z,2.00
2018-07-12T15:54:54.058Z,1.90
2018-07-12T15:57:22.664Z,1.50
2018-07-12T15:59:51.187Z,1.87
2018-07-12T16:02:19.719Z,1.60
2018-07-12T16:04:48.249Z,1.73
2018-07-12T16:07:16.791Z,1.67
2018-07-12T16:09:45.419Z,1.60
2018-07-12T16:12:13.994Z,1.87
2018-07-12T16:14:42.571Z,1.40
2018-07-12T16:17:11.180Z,1.70
2018-07-12T16:19:39.727Z,2.00
2018-07-12T16:22:08.223Z,1.70
2018-07-12T16:24:36.758Z,1.50
2018-07-12T16:27:05.283Z,1.30
2018-07-12T16:29:33.904Z,1.70
2018-07-12T16:32:02.564Z,1.50
2018-07-12T16:34:31.104Z,1.77
2018-07-12T16:36:59.657Z,1.57
2018-07-12T16:39:28.251Z,1.40
2018-07-12T16:41:56.843Z,1.37
2018-07-12T16:44:25.363Z,1.43
2018-07-12T16:46:53.901Z,1.33
2018-07-12T16:49:22.422Z,1.70
2018-07-12T16:51:51.342Z,1.70
2018-07-12T16:54:20.033Z,1.67
2018-07-12T16:56:48.626Z,1.40
2018-07-12T16:59:17.220Z,1.40
2018-07-12T17:01:45.753Z,1.50
2018-07-12T17:04:14.307Z,1.30
2018-07-12T17:06:42.799Z,1.23
2018-07-12T17:09:11.312Z,1.20
2018-07-12T17:11:39.903Z,1.40
2018-07-12T17:14:08.902Z,1.63
2018-07-12T17:16:37.347Z,1.43
2018-07-12T17:19:06.001Z,1.50
2018-07-12T17:21:34.637Z,1.30
2018-07-12T17:24:03.886Z,1.53
2018-07-12T17:26:32.469Z,1.20
2018-07-12T17:29:01.009Z,1.07
2018-07-12T17:31:29.581Z,1.30
2018-07-12T17:33:58.116Z,1.50
2018-07-12T17:36:26.633Z,1.30
2018-07-12T17:38:55.139Z,1.30
2018-07-12T17:41:23.675Z,1.40
2018-07-12T17:43:52.196Z,1.37
2018-07-12T17:46:20.807Z,1.50
2018-07-12T17:48:49.364Z,1.63
2018-07-12T17:51:17.887Z,1.60
2018-07-12T17:53:46.415Z,1.23
2018-07-12T17:56:14.930Z,1.23
2018-07-12T17:58:43.413Z,1.80
2018-07-12T18:01:11.987Z,1.30
2018-07-12T18:03:42.666Z,1.27
2018-07-12T18:06:12.289Z,1.33
2018-07-12T18:08:40.795Z,1.37
2018-07-12T18:11:10.250Z,1.60
2018-07-12T18:13:40.405Z,1.47
2018-07-12T18:16:09.058Z,1.50
2018-07-12T18:18:37.616Z,1.80
2018-07-12T18:21:07.202Z,1.40
2018-07-12T18:23:35.733Z,1.33
2018-07-12T18:26:04.366Z,1.53
2018-07-12T18:28:32.894Z,1.37
2018-07-12T18:31:01.541Z,1.70
2018-07-12T18:33:30.574Z,1.60
2018-07-12T18:35:59.148Z,1.27
2018-07-12T18:38:27.819Z,1.80
2018-07-12T18:40:56.408Z,1.70
2018-07-12T18:43:25.003Z,1.60
2018-07-12T18:45:53.486Z,1.70
2018-07-12T18:48:22.031Z,1.60
2018-07-12T18:50:50.585Z,1.43
2018-07-12T18:53:19.139Z,1.63
2018-07-12T18:55:47.730Z,1.50
2018-07-12T18:58:16.215Z,1.63
2018-07-12T19:00:44.780Z,2.05
2018-07-12T19:03:13.547Z,1.60
2018-07-12T19:05:42.067Z,1.90
2018-07-12T19:08:10.654Z,1.60
2018-07-12T19:10:39.173Z,1.70
2018-07-12T19:13:07.662Z,1.47
2018-07-12T19:15:36.234Z,1.80
2018-07-12T19:18:04.762Z,1.37
2018-07-12T19:20:33.356Z,1.50
2018-07-12T19:23:01.894Z,1.60
2018-07-12T19:25:30.478Z,1.70
2018-07-12T19:27:58.989Z,1.80
2018-07-12T19:30:27.533Z,1.40
2018-07-12T19:32:56.062Z,1.40
2018-07-12T19:35:24.643Z,2.03
2018-07-12T19:37:53.210Z,1.60
2018-07-12T19:40:21.760Z,2.17
2018-07-12T19:42:50.464Z,1.60
2018-07-12T19:45:19.007Z,1.87
2018-07-12T19:47:47.524Z,1.50
2018-07-12T19:50:16.047Z,1.60
2018-07-12T19:52:44.630Z,1.60
2018-07-12T19:55:13.121Z,1.70
2018-07-12T19:57:41.760Z,1.60
2018-07-12T20:00:10.224Z,1.77
2018-07-12T20:02:39.688Z,1.20
2018-07-12T20:05:08.762Z,1.70
2018-07-12T20:07:37.293Z,1.63
2018-07-12T20:10:08.092Z,1.97
2018-07-12T20:12:37.186Z,1.90
2018-07-12T20:15:05.686Z,1.90
2018-07-12T20:17:34.344Z,1.87
2018-07-12T20:20:03.621Z,2.00
2018-07-12T20:22:32.176Z,1.77
2018-07-12T20:25:00.701Z,1.80
2018-07-12T20:27:29.257Z,1.80
2018-07-12T20:29:57.938Z,2.20
2018-07-12T20:32:26.460Z,1.90
2018-07-12T20:34:55.004Z,2.10
2018-07-12T20:37:23.609Z,2.10
2018-07-12T20:39:52.619Z,2.03
2018-07-12T20:42:21.169Z,2.17
2018-07-12T20:44:49.752Z,2.00
2018-07-12T20:47:18.283Z,1.60
2018-07-12T20:49:46.859Z,1.97
2018-07-12T20:52:15.462Z,2.10
2018-07-12T20:54:43.995Z,1.97
2018-07-12T20:57:12.845Z,2.17
2018-07-12T20:59:41.371Z,1.80
2018-07-12T21:02:09.968Z,2.27
2018-07-12T21:04:38.531Z,2.00
2018-07-12T21:07:07.045Z,2.13
2018-07-12T21:09:35.552Z,2.30
2018-07-12T21:12:04.467Z,2.15
2018-07-12T21:14:33.016Z,1.87
2018-07-12T21:17:01.590Z,2.90
2018-07-12T21:19:30.208Z,2.60
2018-07-12T21:21:58.777Z,2.23
2018-07-12T21:24:27.311Z,2.30
2018-07-12T21:26:55.843Z,2.47
2018-07-12T21:29:24.460Z,2.00
2018-07-12T21:31:53.203Z,2.23
2018-07-12T21:34:21.780Z,2.07
2018-07-12T21:36:50.342Z,2.10
2018-07-12T21:39:18.873Z,2.20
2018-07-12T21:41:47.435Z,2.27
2018-07-12T21:44:16.006Z,2.07
2018-07-12T21:46:44.518Z,2.37
2018-07-12T21:49:13.039Z,2.20
2018-07-12T21:51:41.681Z,1.87
2018-07-12T21:54:10.142Z,2.00
2018-07-12T21:56:38.686Z,2.43
2018-07-12T21:59:07.247Z,2.03
2018-07-12T22:01:35.763Z,2.17
2018-07-12T22:04:04.306Z,2.33
2018-07-12T22:06:57.089Z,2.33
2018-07-12T22:09:25.617Z,2.20
2018-07-12T22:11:54.116Z,1.90
2018-07-12T22:14:22.654Z,1.93
2018-07-12T22:16:51.182Z,2.20
2018-07-12T22:19:19.709Z,2.23
2018-07-12T22:21:48.241Z,2.00
2018-07-12T22:24:16.740Z,2.13
2018-07-12T22:26:45.356Z,2.17
2018-07-12T22:29:14.219Z,2.30
2018-07-12T22:31:42.750Z,2.10
2018-07-12T22:34:11.265Z,2.50
2018-07-12T22:36:39.842Z,2.40
2018-07-12T22:39:08.360Z,2.30
2018-07-12T22:41:36.900Z,2.43
2018-07-12T22:44:05.400Z,2.03
2018-07-12T22:46:33.921Z,2.23
2018-07-12T22:49:02.567Z,2.37
2018-07-12T22:51:30.998Z,2.63
2018-07-12T22:53:59.544Z,2.80
2018-07-12T22:56:28.129Z,2.50
2018-07-12T22:58:58.250Z,2.27
2018-07-12T23:01:26.790Z,2.83
2018-07-12T23:03:55.315Z,2.27
2018-07-12T23:06:23.829Z,2.20
2018-07-12T23:08:52.375Z,2.03
2018-07-12T23:11:20.906Z,2.13
2018-07-12T23:13:49.481Z,2.83
2018-07-12T23:16:17.980Z,2.23
2018-07-12T23:18:46.568Z,2.73
2018-07-12T23:21:15.128Z,2.47
2018-07-12T23:23:43.658Z,2.60
2018-07-12T23:26:12.184Z,2.17
2018-07-12T23:28:40.706Z,2.33
2018-07-12T23:31:09.206Z,2.33
2018-07-12T23:33:37.769Z,2.30
2018-07-12T23:36:06.270Z,2.70
2018-07-12T23:38:34.784Z,2.67
2018-07-12T23:41:03.305Z,2.27
2018-07-12T23:43:31.868Z,2.10
2018-07-12T23:46:00.870Z,2.53
2018-07-12T23:48:29.359Z,2.83
2018-07-12T23:50:57.883Z,2.30
2018-07-12T23:53:26.427Z,2.03
2018-07-12T23:55:54.984Z,2.30
2018-07-12T23:58:23.561Z,2.33
